Time,TemperatureF,DewpointF,PressureIn,WindDirection,WindDirectionDegrees,WindSpeedMPH,WindSpeedGustMPH,Humidity,HourlyPrecipIn,Conditions,Clouds,dailyrainin,SoftwareType,DateUTC
2018-05-23 00:04:00,67.9,63.9,30.00,SE,138,0.6,3.5,87,0.00,-RA,,0.00,WeatherDisplay:10.37,2018-05-23 05:04:00,
2018-05-23 00:09:00,67.8,63.8,30.00,South,173,3.1,8.1,87,0.00,-RA,,0.00,WeatherDisplay:10.37,2018-05-23 05:09:00,
2018-05-23 00:14:00,67.8,64.4,30.00,NW,306,2.0,8.1,89,0.00,-RA,,0.00,WeatherDisplay:10.37,2018-05-23 05:14:00,
2018-05-23 00:19:00,67.3,63.9,29.99,SSE,154,1.1,6.9,89,0.00,-RA,,0.00,WeatherDisplay:10.37,2018-05-23 05:19:00,
2018-05-23 00:24:00,67.1,64.1,29.99,SSE,165,0.3,3.5,90,0.00,-RA,,0.00,WeatherDisplay:10.37,2018-05-23 05:24:00,
2018-05-23 00:29:00,66.8,64.1,29.99,ESE,119,0.4,8.1,91,0.00,-RA,,0.00,WeatherDisplay:10.37,2018-05-23 05:29:00,
2018-05-23 00:34:00,66.6,63.9,29.99,East,98,1.1,8.1,91,0.00,-RA,,0.00,WeatherDisplay:10.37,2018-05-23 05:34:00,
2018-05-23 00:39:00,66.4,64.0,29.99,SE,132,1.4,5.8,92,0.00,-RA,,0.00,WeatherDisplay:10.37,2018-05-23 05:39:00,
2018-05-23 00:44:00,66.3,63.9,29.99,SSE,156,1.2,9.2,92,0.00,BKN,,0.00,WeatherDisplay:10.37,2018-05-23 05:44:00,
2018-05-23 00:49:00,66.3,63.9,29.98,ESE,107,2.7,9.2,92,0.00,BKN,,0.00,WeatherDisplay:10.37,2018-05-23 05:49:00,
2018-05-23 00:54:00,66.0,63.6,29.98,SSE,164,3.4,12.7,92,0.00,BKN,,0.00,WeatherDisplay:10.37,2018-05-23 05:54:00,
2018-05-23 00:59:00,66.0,63.3,29.98,South,180,5.7,12.7,91,0.00,BKN,,0.00,WeatherDisplay:10.37,2018-05-23 05:59:00,
2018-05-23 01:04:00,66.1,63.4,29.98,ESE,123,2.1,11.5,91,0.00,BKN,,0.00,WeatherDisplay:10.37,2018-05-23 06:04:00,
2018-05-23 01:09:00,66.1,63.1,29.98,East,101,1.0,11.5,90,0.00,BKN,,0.00,WeatherDisplay:10.37,2018-05-23 06:09:00,
2018-05-23 01:14:00,66.1,63.1,29.98,ESE,117,1.7,10.4,90,0.00,BKN,,0.00,WeatherDisplay:10.37,2018-05-23 06:14:00,
2018-05-23 01:19:00,66.4,63.4,29.98,SE,140,2.7,9.2,90,0.00,BKN,,0.00,WeatherDisplay:10.37,2018-05-23 06:19:00,
2018-05-23 01:24:00,66.8,63.8,29.98,SE,126,0.8,9.2,90,0.00,BKN,,0.00,WeatherDisplay:10.37,2018-05-23 06:24:00,
2018-05-23 01:29:00,66.8,63.5,29.99,SE,125,1.5,5.8,89,0.00,BKN,,0.00,WeatherDisplay:10.37,2018-05-23 06:29:00,
2018-05-23 01:34:00,66.8,63.5,29.99,East,84,4.2,11.5,89,0.00,BKN,,0.00,WeatherDisplay:10.37,2018-05-23 06:34:00,
2018-05-23 01:39:00,66.9,63.2,29.99,ENE,60,1.0,11.5,88,0.00,BKN,,0.00,WeatherDisplay:10.37,2018-05-23 06:39:00,
2018-05-23 01:44:00,66.8,63.1,30.00,NE,45,2.6,11.5,88,0.00,BKN,,0.00,WeatherDisplay:10.37,2018-05-23 06:44:00,
2018-05-23 01:49:00,66.6,62.9,29.99,ENE,63,1.0,4.6,88,0.00,BKN,,0.00,WeatherDisplay:10.37,2018-05-23 06:49:00,
2018-05-23 01:54:00,65.8,62.1,29.99,ENE,61,2.9,10.4,88,0.00,BKN,,0.00,WeatherDisplay:10.37,2018-05-23 06:54:00,
2018-05-23 01:59:00,65.3,61.7,29.99,East,95,1.3,10.4,88,0.00,BKN,,0.00,WeatherDisplay:10.37,2018-05-23 06:59:00,
2018-05-23 02:04:00,65.3,61.7,30.00,East,92,0.8,6.9,88,0.00,BKN,,0.00,WeatherDisplay:10.37,2018-05-23 07:04:00,
2018-05-23 02:09:00,65.5,61.9,29.99,East,92,3.3,6.9,88,0.00,BKN,,0.00,WeatherDisplay:10.37,2018-05-23 07:09:00,
2018-05-23 02:14:00,65.6,61.9,29.99,East,96,1.8,6.9,88,0.00,OVC,,0.00,WeatherDisplay:10.37,2018-05-23 07:14:00,
2018-05-23 02:19:00,65.6,61.9,29.99,SE,130,2.5,10.4,88,0.00,OVC,,0.00,WeatherDisplay:10.37,2018-05-23 07:19:00,
2018-05-23 02:24:00,65.6,61.9,29.99,ESE,103,2.0,10.4,88,0.00,OVC,,0.00,WeatherDisplay:10.37,2018-05-23 07:24:00,
2018-05-23 02:29:00,65.6,61.9,29.99,SE,131,4.3,10.4,88,0.00,OVC,,0.00,WeatherDisplay:10.37,2018-05-23 07:29:00,
2018-05-23 02:34:00,65.5,61.9,29.99,ESE,117,3.9,12.7,88,0.00,OVC,,0.00,WeatherDisplay:10.37,2018-05-23 07:34:00,
2018-05-23 02:39:00,65.5,61.5,29.99,ESE,122,7.0,23.0,87,0.00,OVC,,0.00,WeatherDisplay:10.37,2018-05-23 07:39:00,
2018-05-23 02:44:00,65.6,61.0,29.99,SSE,149,4.7,23.0,85,0.00,OVC,,0.00,WeatherDisplay:10.37,2018-05-23 07:44:00,
2018-05-23 02:49:00,65.6,60.3,30.00,ESE,109,3.0,23.0,83,0.00,OVC,,0.00,WeatherDisplay:10.37,2018-05-23 07:49:00,
2018-05-23 02:54:00,66.0,60.0,29.99,East,96,5.8,10.4,81,0.00,OVC,,0.00,WeatherDisplay:10.37,2018-05-23 07:54:00,
2018-05-23 02:59:00,66.1,60.1,30.00,ESE,107,1.0,10.4,81,0.00,OVC,,0.00,WeatherDisplay:10.37,2018-05-23 07:59:00,
2018-05-23 03:04:00,66.3,60.3,30.00,ESE,103,1.9,9.2,81,0.00,OVC,,0.00,WeatherDisplay:10.37,2018-05-23 08:04:00,
2018-05-23 03:09:00,66.6,60.6,30.01,ESE,107,3.6,6.9,81,0.00,OVC,,0.00,WeatherDisplay:10.37,2018-05-23 08:09:00,
2018-05-23 03:14:00,66.8,60.1,30.01,ESE,106,4.7,11.5,79,0.00,SCT,,0.00,WeatherDisplay:10.37,2018-05-23 08:14:00,
2018-05-23 03:19:00,66.9,59.5,30.01,East,99,4.8,12.7,77,0.00,SCT,,0.00,WeatherDisplay:10.37,2018-05-23 08:19:00,
2018-05-23 03:24:00,66.9,59.1,30.02,ESE,118,3.0,12.7,76,0.00,SCT,,0.00,WeatherDisplay:10.37,2018-05-23 08:24:00,
2018-05-23 03:29:00,66.8,59.4,30.02,ENE,62,4.7,10.4,77,0.00,SCT,,0.00,WeatherDisplay:10.37,2018-05-23 08:29:00,
2018-05-23 03:34:00,66.6,59.5,30.03,NE,39,3.4,9.2,78,0.00,SCT,,0.00,WeatherDisplay:10.37,2018-05-23 08:34:00,
2018-05-23 03:39:00,65.8,58.4,30.04,East,81,2.3,10.4,77,0.00,SCT,,0.00,WeatherDisplay:10.37,2018-05-23 08:39:00,
2018-05-23 03:44:00,65.3,57.9,30.04,East,86,0.3,10.4,77,0.00,SCT,,0.00,WeatherDisplay:10.37,2018-05-23 08:44:00,
2018-05-23 03:49:00,65.2,58.2,30.03,SSE,163,2.1,8.1,78,0.00,SCT,,0.00,WeatherDisplay:10.37,2018-05-23 08:49:00,
2018-05-23 03:54:00,65.5,58.5,30.03,ESE,122,2.7,9.2,78,0.00,SCT,,0.00,WeatherDisplay:10.37,2018-05-23 08:54:00,
2018-05-23 03:59:00,65.6,58.6,30.03,East,94,1.7,9.2,78,0.00,SCT,,0.00,WeatherDisplay:10.37,2018-05-23 08:59:00,
2018-05-23 04:04:00,65.5,58.5,30.03,ENE,70,3.2,12.7,78,0.00,SCT,,0.00,WeatherDisplay:10.37,2018-05-23 09:04:00,
2018-05-23 04:09:00,65.3,58.3,30.04,ESE,107,4.1,12.7,78,0.00,SCT,,0.00,WeatherDisplay:10.37,2018-05-23 09:09:00,
2018-05-23 04:14:00,65.5,58.5,30.04,East,90,1.0,10.4,78,0.00,OVC,,0.00,WeatherDisplay:10.37,2018-05-23 09:14:00,
2018-05-23 04:19:00,65.5,58.5,30.04,East,95,3.4,10.4,78,0.00,OVC,,0.00,WeatherDisplay:10.37,2018-05-23 09:19:00,
2018-05-23 04:24:00,65.6,58.2,30.04,ENE,75,1.0,11.5,77,0.00,OVC,,0.00,WeatherDisplay:10.37,2018-05-23 09:24:00,
2018-05-23 04:29:00,65.6,58.2,30.06,NNE,14,4.0,11.5,77,0.00,OVC,,0.00,WeatherDisplay:10.37,2018-05-23 09:29:00,
2018-05-23 04:34:00,65.5,58.5,30.06,North,351,3.5,9.2,78,0.00,OVC,,0.00,WeatherDisplay:10.37,2018-05-23 09:34:00,
2018-05-23 04:39:00,65.2,58.5,30.05,North,360,1.1,9.2,79,0.00,OVC,,0.00,WeatherDisplay:10.37,2018-05-23 09:39:00,
2018-05-23 04:44:00,65.0,58.3,30.05,North,360,0.0,8.1,79,0.00,OVC,,0.00,WeatherDisplay:10.37,2018-05-23 09:44:00,
2018-05-23 04:49:00,65.0,58.3,30.05,West,277,0.2,3.5,79,0.00,OVC,,0.00,WeatherDisplay:10.37,2018-05-23 09:49:00,
2018-05-23 04:54:00,65.0,58.0,30.05,WNW,284,1.0,3.5,78,0.00,OVC,,0.00,WeatherDisplay:10.37,2018-05-23 09:54:00,
2018-05-23 04:59:00,65.0,58.0,30.05,ENE,66,1.2,3.5,78,0.00,OVC,,0.00,WeatherDisplay:10.37,2018-05-23 09:59:00,
2018-05-23 05:04:00,65.2,57.8,30.05,ESE,105,4.5,8.1,77,0.00,OVC,,0.00,WeatherDisplay:10.37,2018-05-23 10:04:00,
2018-05-23 05:09:00,65.6,57.5,30.05,ESE,103,3.2,8.1,75,0.00,OVC,,0.00,WeatherDisplay:10.37,2018-05-23 10:09:00,
2018-05-23 05:14:00,66.3,57.0,30.05,East,101,4.5,10.4,72,0.00,SCT,,0.00,WeatherDisplay:10.37,2018-05-23 10:14:00,
2018-05-23 05:19:00,66.6,56.9,30.05,ESE,108,0.8,10.4,71,0.00,SCT,,0.00,WeatherDisplay:10.37,2018-05-23 10:19:00,
2018-05-23 05:24:00,66.4,56.7,30.06,East,98,1.8,9.2,71,0.00,SCT,,0.00,WeatherDisplay:10.37,2018-05-23 10:24:00,
2018-05-23 05:29:00,66.3,57.4,30.06,ESE,105,0.2,4.6,73,0.00,SCT,,0.00,WeatherDisplay:10.37,2018-05-23 10:29:00,
2018-05-23 05:34:00,66.0,57.1,30.06,East,96,2.3,4.6,73,0.00,SCT,,0.00,WeatherDisplay:10.37,2018-05-23 10:34:00,
2018-05-23 05:39:00,65.3,57.5,30.06,East,84,1.2,9.2,76,0.00,SCT,,0.00,WeatherDisplay:10.37,2018-05-23 10:39:00,
2018-05-23 05:44:00,64.8,57.8,30.06,ENE,59,3.5,9.2,78,0.00,SCT,,0.00,WeatherDisplay:10.37,2018-05-23 10:44:00,
2018-05-23 05:49:00,65.0,58.0,30.06,ENE,65,1.8,8.1,78,0.00,SCT,,0.00,WeatherDisplay:10.37,2018-05-23 10:49:00,
2018-05-23 05:54:00,64.8,57.8,30.05,ESE,113,3.0,8.1,78,0.00,SCT,,0.00,WeatherDisplay:10.37,2018-05-23 10:54:00,
2018-05-23 05:59:00,64.7,58.0,30.05,ESE,109,2.3,8.1,79,0.00,SCT,,0.00,WeatherDisplay:10.37,2018-05-23 10:59:00,
2018-05-23 06:04:00,64.5,58.2,30.05,East,90,3.9,9.2,80,0.00,SCT,,0.00,WeatherDisplay:10.37,2018-05-23 11:04:00,
2018-05-23 06:09:00,64.7,58.4,30.05,East,91,2.7,9.2,80,0.00,SCT,,0.00,WeatherDisplay:10.37,2018-05-23 11:09:00,
2018-05-23 06:14:00,64.8,58.1,30.05,ESE,105,3.5,9.2,79,0.00,OVC,,0.00,WeatherDisplay:10.37,2018-05-23 11:14:00,
2018-05-23 06:19:00,65.2,58.2,30.05,SSE,158,3.3,11.5,78,0.00,OVC,,0.00,WeatherDisplay:10.37,2018-05-23 11:19:00,
2018-05-23 06:24:00,65.3,58.3,30.05,SE,127,4.5,11.5,78,0.00,OVC,,0.00,WeatherDisplay:10.37,2018-05-23 11:24:00,
2018-05-23 06:29:00,65.3,58.3,30.05,East,96,2.8,10.4,78,0.00,OVC,,0.00,WeatherDisplay:10.37,2018-05-23 11:29:00,
2018-05-23 06:34:00,65.3,58.3,30.05,East,96,2.3,9.2,78,0.00,OVC,,0.00,WeatherDisplay:10.37,2018-05-23 11:34:00,
2018-05-23 06:39:00,65.2,58.2,30.06,East,95,1.0,10.4,78,0.00,OVC,,0.00,WeatherDisplay:10.37,2018-05-23 11:39:00,
2018-05-23 06:44:00,64.8,58.5,30.06,ESE,103,3.7,10.4,80,0.00,OVC,,0.00,WeatherDisplay:10.37,2018-05-23 11:44:00,
2018-05-23 06:49:00,64.7,58.7,30.06,East,98,2.2,10.4,81,0.00,OVC,,0.00,WeatherDisplay:10.37,2018-05-23 11:49:00,
2018-05-23 06:54:00,64.5,58.5,30.07,East,96,3.8,11.5,81,0.00,OVC,,0.00,WeatherDisplay:10.37,2018-05-23 11:54:00,
2018-05-23 06:59:00,64.5,58.5,30.07,East,98,1.8,11.5,81,0.00,OVC,,0.00,WeatherDisplay:10.37,2018-05-23 11:59:00,
2018-05-23 07:04:00,64.5,58.5,30.07,SE,132,3.7,11.5,81,0.00,OVC,,0.00,WeatherDisplay:10.37,2018-05-23 12:04:00,
2018-05-23 07:09:00,64.5,58.5,30.07,East,93,6.3,10.4,81,0.00,OVC,,0.00,WeatherDisplay:10.37,2018-05-23 12:09:00,
2018-05-23 07:14:00,64.7,58.4,30.07,SE,125,2.3,11.5,80,0.00,OVC,,0.00,WeatherDisplay:10.37,2018-05-23 12:14:00,
2018-05-23 07:19:00,64.7,58.4,30.07,ESE,109,3.2,12.7,80,0.00,OVC,,0.00,WeatherDisplay:10.37,2018-05-23 12:19:00,
2018-05-23 07:24:00,64.7,58.4,30.08,SE,146,2.9,12.7,80,0.00,OVC,,0.00,WeatherDisplay:10.37,2018-05-23 12:24:00,
2018-05-23 07:29:00,64.7,58.4,30.08,SE,126,3.1,11.5,80,0.00,OVC,,0.00,WeatherDisplay:10.37,2018-05-23 12:29:00,
2018-05-23 07:34:00,64.5,58.2,30.08,East,84,4.1,11.5,80,0.00,OVC,,0.00,WeatherDisplay:10.37,2018-05-23 12:34:00,
2018-05-23 07:39:00,64.7,58.4,30.07,SE,134,1.5,11.5,80,0.00,OVC,,0.00,WeatherDisplay:10.37,2018-05-23 12:39:00,
2018-05-23 07:44:00,64.7,58.4,30.07,SSE,163,2.0,11.5,80,0.00,OVC,,0.00,WeatherDisplay:10.37,2018-05-23 12:44:00,
2018-05-23 07:49:00,64.8,58.5,30.07,East,93,4.6,11.5,80,0.00,OVC,,0.00,WeatherDisplay:10.37,2018-05-23 12:49:00,
2018-05-23 07:54:00,65.2,58.5,30.07,SE,126,2.7,12.7,79,0.00,OVC,,0.00,WeatherDisplay:10.37,2018-05-23 12:54:00,
2018-05-23 07:59:00,65.5,58.8,30.06,SSE,162,3.8,12.7,79,0.00,OVC,,0.00,WeatherDisplay:10.37,2018-05-23 12:59:00,
2018-05-23 08:04:00,65.8,59.1,30.07,ENE,58,3.4,13.8,79,0.00,OVC,,0.00,WeatherDisplay:10.37,2018-05-23 13:04:00,
2018-05-23 08:09:00,65.6,58.9,30.07,East,88,3.4,13.8,79,0.00,OVC,,0.00,WeatherDisplay:10.37,2018-05-23 13:09:00,
2018-05-23 08:14:00,66.0,59.3,30.07,ESE,105,4.5,13.8,79,0.00,OVC,,0.00,WeatherDisplay:10.37,2018-05-23 13:14:00,
2018-05-23 08:19:00,66.1,59.4,30.06,ESE,105,5.7,16.1,79,0.00,OVC,,0.00,WeatherDisplay:10.37,2018-05-23 13:19:00,
2018-05-23 08:24:00,66.1,59.0,30.06,ESE,115,4.2,16.1,78,0.00,OVC,,0.00,WeatherDisplay:10.37,2018-05-23 13:24:00,
2018-05-23 08:29:00,66.1,59.0,30.06,ENE,76,4.8,16.1,78,0.00,OVC,,0.00,WeatherDisplay:10.37,2018-05-23 13:29:00,
2018-05-23 08:34:00,66.3,59.2,30.06,SE,139,6.1,16.1,78,0.00,OVC,,0.00,WeatherDisplay:10.37,2018-05-23 13:34:00,
2018-05-23 08:39:00,66.3,59.6,30.06,ESE,123,4.6,18.4,79,0.00,OVC,,0.00,WeatherDisplay:10.37,2018-05-23 13:39:00,
2018-05-23 08:44:00,66.3,59.6,30.06,South,176,5.4,18.4,79,0.00,OVC,,0.00,WeatherDisplay:10.37,2018-05-23 13:44:00,
2018-05-23 08:49:00,66.1,59.4,30.06,SSE,154,6.3,11.5,79,0.00,OVC,,0.00,WeatherDisplay:10.37,2018-05-23 13:49:00,
2018-05-23 08:54:00,66.4,59.7,30.06,SSE,152,5.4,11.5,79,0.00,OVC,,0.00,WeatherDisplay:10.37,2018-05-23 13:54:00,
2018-05-23 08:59:00,66.4,59.3,30.06,SE,141,7.0,19.6,78,0.00,OVC,,0.00,WeatherDisplay:10.37,2018-05-23 13:59:00,
2018-05-23 09:04:00,66.6,59.5,30.07,South,187,5.0,19.6,78,0.00,OVC,,0.00,WeatherDisplay:10.37,2018-05-23 14:04:00,
2018-05-23 09:09:00,66.9,59.1,30.06,SSE,150,4.0,19.6,76,0.00,OVC,,0.00,WeatherDisplay:10.37,2018-05-23 14:09:00,
2018-05-23 09:14:00,67.4,59.2,30.07,SSE,149,4.3,12.7,75,0.00,OVC,,0.00,WeatherDisplay:10.37,2018-05-23 14:14:00,
2018-05-23 09:19:00,67.6,58.6,30.06,ESE,103,5.7,17.3,73,0.00,OVC,,0.00,WeatherDisplay:10.37,2018-05-23 14:19:00,
2018-05-23 09:24:00,68.1,58.7,30.07,East,99,5.5,17.3,72,0.00,OVC,,0.00,WeatherDisplay:10.37,2018-05-23 14:24:00,
2018-05-23 09:29:00,68.6,59.2,30.07,South,186,8.1,13.8,72,0.00,OVC,,0.00,WeatherDisplay:10.37,2018-05-23 14:29:00,
2018-05-23 09:34:00,69.3,59.5,30.07,SE,130,7.9,16.1,71,0.00,OVC,,0.00,WeatherDisplay:10.37,2018-05-23 14:34:00,
2018-05-23 09:39:00,69.3,59.5,30.07,SE,142,6.6,16.1,71,0.00,OVC,,0.00,WeatherDisplay:10.37,2018-05-23 14:39:00,
2018-05-23 09:44:00,69.3,59.5,30.07,South,171,4.4,16.1,71,0.00,OVC,,0.00,WeatherDisplay:10.37,2018-05-23 14:44:00,
2018-05-23 09:49:00,69.3,59.5,30.07,SSW,197,10.3,16.1,71,0.00,OVC,,0.00,WeatherDisplay:10.37,2018-05-23 14:49:00,
2018-05-23 09:54:00,69.4,59.6,30.07,SE,146,7.9,16.1,71,0.00,OVC,,0.00,WeatherDisplay:10.37,2018-05-23 14:54:00,
2018-05-23 09:59:00,69.9,60.1,30.07,SSE,168,7.5,16.1,71,0.00,OVC,,0.00,WeatherDisplay:10.37,2018-05-23 14:59:00,
2018-05-23 10:04:00,70.3,60.8,30.07,SE,132,3.5,15.0,72,0.00,OVC,,0.00,WeatherDisplay:10.37,2018-05-23 15:04:00,
2018-05-23 10:05:00,70.4,60.9,30.07,ENE,71,6.1,15.0,72,0.00,OVC,,0.00,WeatherDisplay:10.37,2018-05-23 15:05:00,
2018-05-23 10:10:00,70.6,60.7,30.07,ESE,108,8.1,18.4,71,0.00,OVC,,0.00,WeatherDisplay:10.37,2018-05-23 15:10:00,
2018-05-23 10:15:00,70.8,60.9,30.07,SSE,154,6.9,18.4,71,0.00,BKN,,0.00,WeatherDisplay:10.37,2018-05-23 15:15:00,
2018-05-23 10:20:00,71.1,61.2,30.06,SSE,149,5.4,18.4,71,0.00,BKN,,0.00,WeatherDisplay:10.37,2018-05-23 15:20:00,
2018-05-23 10:25:00,71.3,60.2,30.07,SSW,205,6.0,18.4,68,0.00,BKN,,0.00,WeatherDisplay:10.37,2018-05-23 15:25:00,
2018-05-23 10:26:00,71.5,60.4,30.07,South,178,6.2,16.1,68,0.00,BKN,,0.00,WeatherDisplay:10.37,2018-05-23 15:26:00,
2018-05-23 10:31:00,71.8,60.2,30.07,South,178,5.8,16.1,67,0.00,BKN,,0.00,WeatherDisplay:10.37,2018-05-23 15:31:00,
2018-05-23 10:36:00,72.0,60.9,30.08,South,176,5.3,15.0,68,0.00,BKN,,0.00,WeatherDisplay:10.37,2018-05-23 15:36:00,
2018-05-23 10:41:00,72.1,61.0,30.07,SE,146,9.5,16.1,68,0.00,BKN,,0.00,WeatherDisplay:10.37,2018-05-23 15:41:00,
2018-05-23 10:46:00,72.5,61.3,30.07,SE,130,5.4,16.1,68,0.00,BKN,,0.00,WeatherDisplay:10.37,2018-05-23 15:46:00,
2018-05-23 10:51:00,73.0,61.8,30.07,SSE,157,8.6,15.0,68,0.00,BKN,,0.00,WeatherDisplay:10.37,2018-05-23 15:51:00,
2018-05-23 10:56:00,73.2,62.0,30.07,ESE,111,6.3,13.8,68,0.00,BKN,,0.00,WeatherDisplay:10.37,2018-05-23 15:56:00,
2018-05-23 11:01:00,73.5,61.4,30.07,SSE,166,9.8,18.4,66,0.00,BKN,,0.00,WeatherDisplay:10.37,2018-05-23 16:01:00,
2018-05-23 11:06:00,73.5,61.9,30.07,SE,146,8.0,18.4,67,0.00,BKN,,0.00,WeatherDisplay:10.37,2018-05-23 16:06:00,
2018-05-23 11:11:00,73.5,61.9,30.07,North,360,8.2,16.1,67,0.00,CLR,,0.00,WeatherDisplay:10.37,2018-05-23 16:11:00,
2018-05-23 11:16:00,73.3,62.1,30.07,North,360,6.2,16.1,68,0.00,CLR,,0.00,WeatherDisplay:10.37,2018-05-23 16:16:00,
2018-05-23 11:21:00,73.9,62.7,30.07,North,360,9.8,15.0,68,0.00,CLR,,0.00,WeatherDisplay:10.37,2018-05-23 16:21:00,
2018-05-23 11:26:00,74.6,63.3,30.07,North,360,8.5,15.0,68,0.00,CLR,,0.00,WeatherDisplay:10.37,2018-05-23 16:26:00,
2018-05-23 11:31:00,74.9,64.0,30.07,North,360,7.6,16.1,69,0.00,CLR,,0.00,WeatherDisplay:10.37,2018-05-23 16:31:00,
2018-05-23 11:36:00,74.6,62.9,30.07,North,360,9.0,19.6,67,0.00,CLR,,0.00,WeatherDisplay:10.37,2018-05-23 16:36:00,
2018-05-23 11:41:00,74.7,63.0,30.07,North,360,5.7,19.6,67,0.00,CLR,,0.00,WeatherDisplay:10.37,2018-05-23 16:41:00,
2018-05-23 11:46:00,75.3,63.6,30.06,North,360,8.3,19.6,67,0.00,CLR,,0.00,WeatherDisplay:10.37,2018-05-23 16:46:00,
2018-05-23 11:51:00,75.1,63.8,30.06,North,360,7.9,19.6,68,0.00,CLR,,0.00,WeatherDisplay:10.37,2018-05-23 16:51:00,
2018-05-23 11:56:00,75.1,63.4,30.06,North,360,10.3,19.6,67,0.00,CLR,,0.00,WeatherDisplay:10.37,2018-05-23 16:56:00,
2018-05-23 12:01:00,75.3,63.6,30.06,North,360,6.9,16.1,67,0.00,CLR,,0.00,WeatherDisplay:10.37,2018-05-23 17:01:00,
2018-05-23 12:06:00,75.8,64.1,30.06,North,360,5.6,19.6,67,0.00,CLR,,0.00,WeatherDisplay:10.37,2018-05-23 17:06:00,
2018-05-23 12:11:00,76.0,64.2,30.06,North,360,7.5,19.6,67,0.00,CLR,,0.00,WeatherDisplay:10.37,2018-05-23 17:11:00,
2018-05-23 12:16:00,76.3,64.5,30.06,North,360,10.8,15.0,67,0.00,CLR,,0.00,WeatherDisplay:10.37,2018-05-23 17:16:00,